createdAt,value
2019-03-30T04:56:28.675Z,8.50
2019-03-30T04:58:58.658Z,8.50
2019-03-30T05:01:28.866Z,8.50
2019-03-30T05:03:59.465Z,8.50
2019-03-30T05:06:30.555Z,8.60
2019-03-30T05:09:00.709Z,8.60
2019-03-30T05:11:30.964Z,8.60
2019-03-30T05:14:01.249Z,8.70
2019-03-30T05:16:31.371Z,8.60
2019-03-30T05:19:01.477Z,8.60
2019-03-30T05:21:31.864Z,8.70
2019-03-30T05:24:01.996Z,8.70
2019-03-30T05:26:32.116Z,8.70
2019-03-30T05:29:02.178Z,8.70
2019-03-30T05:31:32.182Z,8.70
2019-03-30T05:34:02.178Z,8.80
2019-03-30T05:36:32.377Z,8.80
2019-03-30T05:41:31.626Z,9.00
2019-03-30T05:44:01.756Z,9.00
2019-03-30T05:46:31.988Z,9.00
2019-03-30T05:49:02.044Z,9.00
2019-03-30T05:51:32.070Z,9.00
2019-03-30T05:54:02.266Z,9.10
2019-03-30T05:56:32.567Z,9.00
2019-03-30T05:59:02.724Z,9.10
2019-03-30T06:01:32.916Z,9.20
2019-03-30T06:04:03.065Z,9.20
2019-03-30T06:06:33.759Z,9.20
2019-03-30T06:09:05.505Z,9.30
2019-03-30T06:11:35.656Z,9.40
2019-03-30T06:14:05.959Z,9.50
2019-03-30T06:16:36.104Z,9.40
2019-03-30T06:19:06.175Z,9.40
2019-03-30T06:21:36.174Z,9.50
2019-03-30T06:24:06.117Z,9.60
2019-03-30T06:26:36.253Z,9.60
2019-03-30T06:29:06.384Z,9.60
2019-03-30T06:31:37.507Z,9.60
2019-03-30T06:34:07.615Z,9.70
2019-03-30T06:36:37.846Z,9.80
2019-03-30T06:39:08.129Z,9.80
2019-03-30T06:41:38.197Z,9.80
2019-03-30T06:44:08.245Z,9.90
2019-03-30T06:46:39.613Z,9.90
2019-03-30T06:49:10.576Z,9.80
2019-03-30T06:51:40.733Z,9.90
2019-03-30T06:54:10.956Z,9.90
2019-03-30T06:56:41.180Z,10.10
2019-03-30T06:59:11.307Z,10.20
2019-03-30T07:04:11.356Z,10.30
2019-03-30T07:06:42.034Z,10.30
2019-03-30T07:16:43.322Z,10.30
2019-03-30T07:21:42.835Z,10.30
2019-03-30T07:24:12.830Z,10.20
2019-03-30T07:29:12.845Z,10.70
2019-03-30T07:31:43.045Z,10.70
2019-03-30T07:34:13.200Z,10.80
2019-03-30T07:36:43.365Z,10.80
2019-03-30T07:39:13.334Z,10.90
2019-03-30T07:41:43.347Z,10.80
2019-03-30T07:44:13.497Z,10.60
2019-03-30T07:46:43.532Z,10.60
2019-03-30T07:51:42.715Z,10.70
2019-03-30T07:54:12.930Z,10.80
2019-03-30T07:59:15.836Z,10.80
2019-03-30T08:04:15.490Z,11.00
2019-03-30T08:06:45.823Z,10.70
2019-03-30T08:09:15.995Z,10.90
2019-03-30T08:11:46.068Z,11.10
2019-03-30T08:16:45.263Z,11.10
2019-03-30T08:19:15.306Z,10.90
2019-03-30T08:21:45.400Z,10.90
2019-03-30T08:24:15.642Z,11.20
2019-03-30T08:29:14.884Z,11.10
2019-03-30T08:31:45.078Z,11.00
2019-03-30T08:41:42.819Z,11.80
2019-03-30T08:44:12.872Z,11.60
2019-03-30T08:51:41.765Z,11.80
2019-03-30T08:59:10.439Z,11.80
2019-03-30T09:43:59.064Z,12.90
2019-03-30T10:23:49.591Z,15.30
2019-03-30T10:28:49.158Z,14.60
2019-03-30T10:31:19.471Z,15.10
2019-03-30T10:36:18.730Z,14.50
2019-03-30T10:41:17.936Z,14.50
2019-03-30T10:43:48.079Z,15.80
2019-03-30T10:46:18.207Z,16.10
2019-03-30T10:48:49.336Z,15.90
2019-03-30T10:56:17.867Z,14.80
2019-03-30T10:58:48.371Z,15.50
2019-03-30T11:11:15.447Z,14.90
2019-03-30T11:13:45.568Z,16.10
2019-03-30T11:16:15.696Z,16.80
2019-03-30T11:18:45.740Z,15.30
2019-03-30T11:21:15.840Z,15.80
2019-03-30T11:23:45.878Z,16.50
2019-03-30T11:26:16.073Z,16.80
2019-03-30T11:28:46.185Z,16.80
2019-03-30T11:36:14.683Z,15.30
2019-03-30T11:38:44.970Z,17.80
2019-03-30T11:43:44.215Z,15.80
2019-03-30T11:46:14.248Z,16.70
2019-03-30T11:48:44.344Z,17.60
2019-03-30T11:51:14.540Z,19.00
2019-03-30T11:56:13.760Z,16.80
2019-03-30T11:58:43.939Z,17.60
2019-03-30T12:01:14.096Z,17.30
2019-03-30T12:03:44.089Z,19.00
2019-03-30T12:06:14.186Z,20.00
2019-03-30T12:11:13.463Z,17.90
2019-03-30T12:13:43.501Z,18.80
2019-03-30T12:16:13.565Z,18.90
2019-03-30T12:18:43.970Z,17.80
2019-03-30T12:21:13.996Z,17.90
2019-03-30T12:23:44.256Z,17.60
2019-03-30T12:26:14.382Z,19.30
2019-03-30T12:28:44.692Z,19.20
2019-03-30T12:31:14.844Z,20.10
2019-03-30T12:36:14.214Z,18.50
2019-03-30T12:38:44.357Z,20.20
2019-03-30T12:41:14.470Z,20.60
2019-03-30T12:43:44.807Z,21.20
2019-03-30T12:46:14.862Z,21.20
2019-03-30T12:48:45.221Z,20.40
2019-03-30T12:51:15.342Z,20.10
2019-03-30T12:53:50.389Z,20.80
2019-03-30T12:58:46.467Z,19.50
2019-03-30T13:01:16.745Z,21.00
2019-03-30T13:03:46.788Z,20.30
2019-03-30T13:06:16.867Z,22.20
2019-03-30T13:08:46.980Z,23.00
2019-03-30T13:11:17.021Z,22.40
2019-03-30T13:13:47.239Z,21.60
2019-03-30T13:16:17.391Z,22.30
2019-03-30T13:18:47.703Z,22.30
2019-03-30T13:21:17.883Z,21.20
2019-03-30T13:23:48.068Z,22.00
2019-03-30T13:26:18.353Z,22.50
2019-03-30T13:28:48.390Z,21.00
2019-03-30T13:31:18.615Z,22.10
2019-03-30T13:33:48.692Z,21.30
2019-03-30T13:38:48.403Z,20.40
2019-03-30T13:41:18.557Z,21.30
2019-03-30T13:43:48.646Z,21.20
2019-03-30T13:46:19.044Z,20.40
2019-03-30T13:48:49.094Z,21.20
2019-03-30T13:53:48.592Z,18.70
2019-03-30T13:56:18.756Z,19.80
2019-03-30T13:58:48.898Z,19.80
2019-03-30T14:01:19.184Z,19.30
2019-03-30T14:03:49.284Z,19.60
2019-03-30T14:06:19.471Z,19.60
2019-03-30T14:08:49.768Z,18.60
2019-03-30T14:11:19.973Z,19.30
2019-03-30T14:13:50.117Z,20.30
2019-03-30T14:16:20.382Z,20.90
2019-03-30T14:18:50.557Z,19.80
2019-03-30T14:21:20.879Z,20.80
2019-03-30T14:23:51.345Z,21.00
2019-03-30T14:33:51.525Z,17.70
2019-03-30T14:36:21.637Z,18.70
2019-03-30T14:38:52.051Z,19.80
2019-03-30T14:43:51.286Z,18.40
2019-03-30T14:46:21.465Z,18.70
2019-03-30T14:51:21.176Z,17.80
2019-03-30T14:53:51.397Z,18.80
2019-03-30T15:01:19.941Z,18.00
2019-03-30T15:03:50.079Z,18.20
2019-03-30T15:06:20.210Z,18.50
2019-03-30T15:23:46.153Z,16.00
2019-03-30T15:26:16.329Z,15.70
2019-03-30T15:38:43.277Z,15.80
2019-03-30T15:41:13.323Z,15.30
2019-03-30T15:43:43.390Z,15.10
2019-03-30T15:46:14.461Z,15.10
2019-03-30T15:48:44.763Z,14.70
2019-03-30T15:53:44.370Z,14.70
2019-03-30T15:56:14.533Z,14.90
2019-03-30T15:58:44.628Z,14.50
2019-03-30T16:01:14.942Z,14.50
2019-03-30T16:03:44.936Z,14.40
2019-03-30T16:08:44.848Z,14.20
2019-03-30T16:11:15.148Z,14.10
2019-03-30T16:16:14.628Z,14.20
2019-03-30T16:18:44.656Z,14.00
2019-03-30T16:21:14.681Z,13.90
2019-03-30T16:23:44.962Z,13.80
2019-03-30T16:26:15.269Z,13.80
2019-03-30T16:28:45.282Z,13.70
2019-03-30T16:31:15.485Z,13.60
2019-03-30T16:33:46.987Z,13.40
2019-03-30T16:36:17.697Z,13.40
2019-03-30T16:38:47.944Z,13.40
2019-03-30T16:41:17.958Z,13.20
2019-03-30T16:43:48.132Z,13.10
2019-03-30T16:46:18.318Z,13.00
2019-03-30T16:48:48.517Z,12.90
2019-03-30T16:51:18.728Z,12.90
2019-03-30T16:53:48.898Z,12.70
2019-03-30T16:56:19.008Z,12.60
2019-03-30T16:58:49.149Z,12.40
2019-03-30T17:01:19.328Z,12.20
2019-03-30T17:03:50.146Z,12.00
2019-03-30T17:06:20.286Z,12.00
2019-03-30T17:08:50.308Z,11.80
2019-03-30T17:11:21.011Z,11.50
2019-03-30T17:13:51.058Z,11.30
2019-03-30T17:16:21.458Z,11.10
2019-03-30T17:18:51.685Z,11.00
2019-03-30T17:21:21.888Z,10.80
2019-03-30T17:23:52.000Z,10.60
2019-03-30T17:26:22.483Z,10.50
2019-03-30T17:28:52.570Z,10.40
2019-03-30T17:31:22.785Z,10.20
2019-03-30T17:33:52.856Z,10.10
2019-03-30T17:36:23.111Z,9.90
2019-03-30T17:38:53.208Z,9.80
2019-03-30T17:41:23.531Z,9.70
2019-03-30T17:43:53.879Z,9.60
2019-03-30T17:46:23.943Z,9.50
2019-03-30T17:48:53.883Z,9.40
2019-03-30T17:51:23.967Z,9.40
2019-03-30T17:53:54.169Z,9.30
2019-03-30T17:56:24.149Z,9.20
2019-03-30T17:58:54.364Z,9.10
2019-03-30T18:01:24.498Z,9.00
2019-03-30T18:03:54.631Z,8.80
2019-03-30T18:06:24.781Z,8.70
2019-03-30T18:08:54.946Z,8.70
2019-03-30T18:11:25.061Z,8.60
2019-03-30T18:13:55.197Z,8.60
2019-03-30T18:16:25.477Z,8.50
2019-03-30T18:18:55.944Z,8.40
2019-03-30T18:21:25.993Z,8.30
2019-03-30T18:23:56.113Z,8.20
2019-03-30T18:26:26.180Z,8.10
2019-03-30T18:28:56.363Z,8.10
2019-03-30T18:31:26.689Z,8.00
2019-03-30T18:33:57.079Z,8.00
2019-03-30T18:36:29.036Z,7.80
2019-03-30T18:39:09.505Z,7.70
2019-03-30T18:41:31.923Z,7.60
2019-03-30T18:44:02.544Z,7.60
2019-03-30T18:46:32.681Z,7.50
2019-03-30T18:49:02.775Z,7.40
2019-03-30T18:51:33.414Z,7.40
2019-03-30T18:54:04.062Z,7.30
2019-03-30T18:56:34.407Z,7.20
2019-03-30T18:59:04.667Z,7.10
2019-03-30T19:01:34.769Z,7.10
2019-03-30T19:04:05.152Z,7.10
2019-03-30T19:06:35.241Z,7.00
2019-03-30T19:09:07.646Z,6.90
2019-03-30T19:11:37.698Z,6.80
2019-03-30T19:14:07.792Z,6.80
2019-03-30T19:16:37.868Z,6.70
2019-03-30T19:19:08.050Z,6.60
2019-03-30T19:21:38.140Z,6.60
2019-03-30T19:24:08.386Z,6.50
2019-03-30T19:26:38.599Z,6.40
2019-03-30T19:29:08.844Z,6.40
2019-03-30T19:31:38.988Z,6.30
2019-03-30T19:34:09.171Z,6.20
2019-03-30T19:36:39.318Z,6.20
2019-03-30T19:39:10.626Z,6.20
2019-03-30T19:41:41.503Z,6.10
2019-03-30T19:44:11.622Z,6.10
2019-03-30T19:46:41.706Z,6.00
2019-03-30T19:49:11.766Z,5.90
2019-03-30T19:51:41.893Z,5.80
2019-03-30T19:54:12.014Z,5.80
2019-03-30T19:56:42.087Z,5.80
2019-03-30T19:59:12.204Z,5.70
2019-03-30T20:01:42.282Z,5.70
2019-03-30T20:04:12.512Z,5.70
2019-03-30T20:06:42.936Z,5.60
2019-03-30T20:09:13.087Z,5.50
2019-03-30T20:11:43.184Z,5.50
2019-03-30T20:14:13.382Z,5.40
2019-03-30T20:16:43.573Z,5.40
2019-03-30T20:19:13.743Z,5.30
2019-03-30T20:21:43.956Z,5.30
2019-03-30T20:24:14.108Z,5.30
2019-03-30T20:26:44.371Z,5.20
2019-03-30T20:29:24.739Z,5.20
2019-03-30T20:31:46.246Z,5.20
2019-03-30T20:34:16.373Z,5.10
2019-03-30T20:36:47.071Z,5.10
2019-03-30T20:39:17.206Z,5.00
2019-03-30T20:41:47.379Z,5.00
2019-03-30T20:44:17.615Z,5.00
2019-03-30T20:46:47.776Z,4.90
2019-03-30T20:49:18.052Z,4.80
2019-03-30T20:51:48.174Z,4.80
2019-03-30T20:54:18.304Z,4.80
2019-03-30T20:56:48.394Z,4.70
2019-03-30T20:59:18.418Z,4.70
2019-03-30T21:01:48.397Z,4.60
2019-03-30T21:04:18.503Z,4.60
2019-03-30T21:06:48.694Z,4.60
2019-03-30T21:09:19.017Z,4.50
2019-03-30T21:11:49.159Z,4.40
2019-03-30T21:14:19.309Z,4.40
2019-03-30T21:16:49.400Z,4.40
2019-03-30T21:19:19.443Z,4.30
2019-03-30T21:21:49.551Z,4.30
2019-03-30T21:24:19.569Z,4.20
2019-03-30T21:26:49.619Z,4.20
2019-03-30T21:29:19.656Z,4.20
2019-03-30T21:31:49.835Z,4.20
2019-03-30T21:34:19.989Z,4.20
2019-03-30T21:36:50.090Z,4.30
2019-03-30T21:39:20.245Z,4.20
2019-03-30T21:41:50.627Z,4.20
2019-03-30T21:44:22.257Z,4.30
2019-03-30T21:46:52.562Z,4.20
2019-03-30T21:49:22.734Z,4.20
2019-03-30T21:51:52.952Z,4.10
2019-03-30T21:54:23.181Z,4.20
2019-03-30T21:56:53.347Z,4.20
2019-03-30T21:59:23.558Z,4.20
2019-03-30T22:01:53.767Z,4.20
2019-03-30T22:04:24.005Z,4.30
2019-03-30T22:06:54.287Z,4.30
2019-03-30T22:09:24.340Z,4.30
2019-03-30T22:11:54.418Z,4.30
2019-03-30T22:14:24.549Z,4.40
2019-03-30T22:16:55.042Z,4.40
2019-03-30T22:19:25.063Z,4.30
2019-03-30T22:21:55.259Z,4.30
2019-03-30T22:24:25.475Z,4.30
2019-03-30T22:26:55.672Z,4.20
2019-03-30T22:29:25.785Z,4.10
2019-03-30T22:31:55.960Z,4.00
2019-03-30T22:34:26.019Z,3.90
2019-03-30T22:36:56.028Z,3.90
2019-03-30T22:39:26.205Z,3.90
2019-03-30T22:41:56.287Z,3.80
2019-03-30T22:44:26.300Z,3.80
2019-03-30T22:46:56.588Z,3.70
2019-03-30T22:49:26.754Z,3.70
2019-03-30T22:51:57.078Z,3.70
2019-03-30T22:54:27.279Z,3.60
2019-03-30T22:56:57.444Z,3.60
2019-03-30T22:59:27.830Z,3.60
2019-03-30T23:01:58.061Z,3.50
2019-03-30T23:04:28.190Z,3.40
2019-03-30T23:06:58.862Z,3.40
2019-03-30T23:09:28.915Z,3.40
2019-03-30T23:11:59.220Z,3.40
2019-03-30T23:14:29.442Z,3.30
2019-03-30T23:16:59.562Z,3.30
2019-03-30T23:19:29.676Z,3.20
2019-03-30T23:21:59.856Z,3.20
2019-03-30T23:24:29.818Z,3.20
2019-03-30T23:26:59.887Z,3.10
2019-03-30T23:29:29.890Z,3.10
2019-03-30T23:32:00.256Z,3.10
2019-03-30T23:34:30.292Z,3.10
2019-03-30T23:37:00.468Z,3.00
2019-03-30T23:39:30.649Z,3.00
2019-03-30T23:42:00.945Z,3.00
2019-03-30T23:44:31.029Z,2.90
2019-03-30T23:47:01.403Z,2.90
2019-03-30T23:49:31.397Z,2.90
2019-03-30T23:52:01.379Z,2.90
2019-03-30T23:54:32.029Z,2.90
2019-03-30T23:57:02.805Z,2.90
2019-03-30T23:59:32.830Z,2.90
